Alpine, Alabama
Current Conditions -  °F | °C
As of 7:35 PM on Tuesday 25 Nov 2014 (Local Time) from KSCD Reporting Station
Clear Clear  
Wind Chill: 52°   Ceiling: Unl
Heat Index: 52°   Visibility: 10mi
Dew Point: 33°   Wind: 0mph
Humidity: 49%   Direction: NA
Pressure: 30.11"   Gusts: NA
Location:  33.34°N, 86.23°W
Report Text: KSCD 260135Z AUTO 00000KT 10SM CLR 11/00 A3011 RMK AO2 T01090004
Loading
Personal Weather Stations






























Interactive Weather Map New forecast layout! Learn more

10-Day Weather Forecast

Advertisements
Track Severe Weather on mobile